createdAt,value
2022-10-23T00:00:38.460Z,97907.94
2022-10-23T00:03:04.802Z,97907.38
2022-10-23T00:05:31.046Z,97897.75
2022-10-23T00:07:57.303Z,97898.03
2022-10-23T00:10:23.516Z,97901.72
2022-10-23T00:12:49.959Z,97903.84
2022-10-23T00:15:16.442Z,97895.28
2022-10-23T00:17:42.791Z,97897.41
2022-10-23T00:20:09.256Z,97888.81
2022-10-23T00:22:35.449Z,97902.44
2022-10-23T00:25:02.056Z,97902.69
2022-10-23T00:27:28.379Z,97902.13
2022-10-23T00:29:54.711Z,97902.34
2022-10-23T00:32:21.130Z,97891.91
2022-10-23T00:34:47.372Z,97893.22
2022-10-23T00:37:13.556Z,97893.47
2022-10-23T00:39:39.949Z,97892.91
2022-10-23T00:42:06.177Z,97896.63
2022-10-23T00:44:32.975Z,97905.94
2022-10-23T00:46:59.337Z,97900.84
2022-10-23T00:49:25.754Z,97901.91
2022-10-23T00:51:52.173Z,97899.47
2022-10-23T00:54:24.772Z,97899.72
2022-10-23T00:56:51.419Z,97898.13
2022-10-23T00:59:17.685Z,97900.22
2022-10-23T01:01:44.082Z,97895.41
2022-10-23T01:04:10.585Z,97900.16
2022-10-23T01:06:36.815Z,97885.19
2022-10-23T01:09:03.012Z,97881.97
2022-10-23T01:11:30.196Z,97888.63
2022-10-23T01:13:56.419Z,97886.19
2022-10-23T01:16:22.753Z,97883.78
2022-10-23T01:18:49.103Z,97887.72
2022-10-23T01:21:15.314Z,97886.91
2022-10-23T01:23:41.589Z,97881.81
2022-10-23T01:26:07.811Z,97870.59
2022-10-23T01:28:34.019Z,97870.03
2022-10-23T01:31:00.242Z,97874.81
2022-10-23T01:33:26.426Z,97866.25
2022-10-23T01:35:52.646Z,97868.09
2022-10-23T01:38:18.873Z,97866.50
2022-10-23T01:40:46.168Z,97868.59
2022-10-23T01:43:12.433Z,97866.19
2022-10-23T01:45:38.766Z,97860.28
2022-10-23T01:48:04.968Z,97858.91
2022-10-23T01:50:31.230Z,97861.81
2022-10-23T01:52:59.656Z,97863.44
2022-10-23T01:55:26.009Z,97868.28
2022-10-23T01:57:52.225Z,97855.97
2022-10-23T02:00:18.471Z,97865.88
2022-10-23T02:02:44.756Z,97859.16
2022-10-23T02:05:11.193Z,97852.47
2022-10-23T02:07:37.424Z,97866.06
2022-10-23T02:10:03.744Z,97861.19
2022-10-23T02:12:30.078Z,97864.91
2022-10-23T02:14:56.484Z,97864.34
2022-10-23T02:17:24.918Z,97863.78
2022-10-23T02:19:51.121Z,97863.22
2022-10-23T02:22:17.315Z,97868.81
2022-10-23T02:24:43.545Z,97863.72
2022-10-23T02:27:09.939Z,97862.34
2022-10-23T02:29:36.264Z,97853.78
2022-10-23T02:32:02.441Z,97855.91
2022-10-23T02:34:28.771Z,97858.00
2022-10-23T02:36:54.973Z,97847.56
2022-10-23T02:39:21.316Z,97841.66
2022-10-23T02:41:47.502Z,97843.78
2022-10-23T02:44:13.719Z,97840.50
2022-10-23T02:46:40.071Z,97840.75
2022-10-23T02:49:06.302Z,97839.41
2022-10-23T02:51:32.475Z,97837.75
2022-10-23T02:53:58.737Z,97829.19
2022-10-23T02:56:24.959Z,97824.09
2022-10-23T02:58:51.134Z,97818.22
2022-10-23T03:01:17.468Z,97810.69
2022-10-23T03:03:43.951Z,97805.63
2022-10-23T03:06:10.175Z,97807.72
2022-10-23T03:08:36.428Z,97815.97
2022-10-23T03:11:02.652Z,97815.97
2022-10-23T03:13:28.883Z,97810.06
2022-10-23T03:15:55.144Z,97811.91
2022-10-23T03:18:21.451Z,97813.22
2022-10-23T03:20:47.702Z,97812.41
2022-10-23T03:23:14.462Z,97813.72
2022-10-23T03:25:40.662Z,97811.28
2022-10-23T03:28:06.945Z,97803.53
2022-10-23T03:30:33.147Z,97810.16
2022-10-23T03:32:59.350Z,97807.75
2022-10-23T03:35:27.572Z,97806.38
2022-10-23T03:37:53.819Z,97809.28
2022-10-23T03:40:20.170Z,97803.38
2022-10-23T03:42:46.375Z,97801.78
2022-10-23T03:45:12.576Z,97802.00
2022-10-23T03:47:40.636Z,97796.13
2022-10-23T03:50:07.208Z,97789.16
2022-10-23T03:52:33.403Z,97794.97
2022-10-23T03:54:59.919Z,97792.56
2022-10-23T03:57:26.127Z,97793.59
2022-10-23T03:59:52.365Z,97790.34
2022-10-23T04:02:18.902Z,97789.56
2022-10-23T04:04:45.231Z,97800.47
2022-10-23T04:07:11.495Z,97792.72
2022-10-23T04:09:37.730Z,97789.50
2022-10-23T04:12:04.020Z,97789.75
2022-10-23T04:14:30.388Z,97791.59
2022-10-23T04:16:56.647Z,97782.22
2022-10-23T04:19:22.980Z,97785.94
2022-10-23T04:21:49.246Z,97783.50
2022-10-23T04:24:17.746Z,97769.63
2022-10-23T04:26:44.053Z,97773.31
2022-10-23T04:29:10.290Z,97779.72
2022-10-23T04:31:36.542Z,97781.81
2022-10-23T04:34:02.964Z,97783.91
2022-10-23T04:36:29.237Z,97790.28
2022-10-23T04:38:56.156Z,97787.88
2022-10-23T04:41:22.435Z,97774.78
2022-10-23T04:43:48.781Z,97773.16
2022-10-23T04:46:15.097Z,97779.81
2022-10-23T04:48:41.300Z,97773.66
2022-10-23T04:51:07.619Z,97760.81
2022-10-23T04:53:33.920Z,97768.00
2022-10-23T04:56:00.153Z,97769.06
2022-10-23T04:58:26.336Z,97768.50
2022-10-23T05:00:52.591Z,97761.78
2022-10-23T05:03:18.862Z,97764.44
2022-10-23T05:05:45.202Z,97762.25
2022-10-23T05:08:14.295Z,97768.59
2022-10-23T05:10:43.498Z,97759.00
2022-10-23T05:13:09.770Z,97759.25
2022-10-23T05:15:36.047Z,97756.81
2022-10-23T05:18:02.301Z,97750.91
2022-10-23T05:20:28.569Z,97749.28
2022-10-23T05:22:54.897Z,97756.50
2022-10-23T05:25:21.419Z,97759.41
2022-10-23T05:27:47.631Z,97755.09
2022-10-23T05:30:13.861Z,97764.16
2022-10-23T05:32:40.715Z,97767.06
2022-10-23T05:35:07.201Z,97776.91
2022-10-23T05:37:33.412Z,97764.63
2022-10-23T05:39:59.583Z,97759.53
2022-10-23T05:42:25.799Z,97756.09
2022-10-23T05:44:52.066Z,97740.31
2022-10-23T05:47:18.256Z,97733.63
2022-10-23T05:49:44.480Z,97738.13
2022-10-23T05:52:10.838Z,97742.91
2022-10-23T05:54:37.503Z,97756.22
2022-10-23T05:57:03.801Z,97751.13
2022-10-23T05:59:30.025Z,97749.53
2022-10-23T06:01:56.306Z,97751.38
2022-10-23T06:04:22.577Z,97755.88
2022-10-23T06:06:48.803Z,97750.78
2022-10-23T06:09:15.044Z,97754.53
2022-10-23T06:11:41.228Z,97764.09
2022-10-23T06:14:07.517Z,97761.69
2022-10-23T06:16:34.869Z,97757.19
2022-10-23T06:19:01.113Z,97746.53
2022-10-23T06:21:27.317Z,97739.34
2022-10-23T06:23:53.752Z,97746.53
2022-10-23T06:26:19.947Z,97744.69
2022-10-23T06:28:46.197Z,97747.34
2022-10-23T06:31:12.454Z,97734.03
2022-10-23T06:33:38.809Z,97731.13
2022-10-23T06:36:05.109Z,97729.50
2022-10-23T06:38:31.293Z,97737.25
2022-10-23T06:40:57.503Z,97725.56
2022-10-23T06:43:23.697Z,97727.97
2022-10-23T06:45:49.915Z,97727.75
2022-10-23T06:48:16.117Z,97726.72
2022-10-23T06:50:42.327Z,97729.44
2022-10-23T06:53:08.557Z,97730.25
2022-10-23T06:55:34.856Z,97727.56
2022-10-23T06:58:01.142Z,97730.81
2022-10-23T07:00:27.536Z,97727.31
2022-10-23T07:02:53.796Z,97733.22
2022-10-23T07:05:20.011Z,97730.31
2022-10-23T07:07:46.219Z,97740.75
2022-10-23T07:12:38.737Z,97737.44
2022-10-23T07:15:05.060Z,97743.28
2022-10-23T07:17:31.413Z,97744.56
2022-10-23T07:19:57.686Z,97754.09
2022-10-23T07:22:24.128Z,97763.31
2022-10-23T07:24:50.467Z,97755.44
2022-10-23T07:27:18.903Z,97751.56
2022-10-23T07:29:45.246Z,97756.47
2022-10-23T07:32:11.603Z,97754.44
2022-10-23T07:34:37.965Z,97751.59
2022-10-23T07:37:05.393Z,97755.13
2022-10-23T07:39:31.654Z,97756.84
2022-10-23T07:41:57.951Z,97754.50
2022-10-23T07:44:27.014Z,97750.56
2022-10-23T07:46:54.333Z,97746.66
2022-10-23T07:49:20.677Z,97739.03
2022-10-23T07:51:50.506Z,97742.31
2022-10-23T07:54:17.878Z,97736.84
2022-10-23T07:56:44.528Z,97747.91
2022-10-23T07:59:10.789Z,97735.63
2022-10-23T08:01:37.095Z,97742.66
2022-10-23T08:04:03.432Z,97738.16
2022-10-23T08:06:29.654Z,97740.69
2022-10-23T08:08:55.855Z,97740.00
2022-10-23T08:11:22.056Z,97741.81
2022-10-23T08:13:49.325Z,97737.56
2022-10-23T08:16:15.564Z,97734.13
2022-10-23T08:18:41.874Z,97733.59
2022-10-23T08:21:08.086Z,97729.66
2022-10-23T08:23:34.337Z,97731.59
2022-10-23T08:26:00.600Z,97726.13
2022-10-23T08:28:26.827Z,97731.47
2022-10-23T08:30:53.076Z,97733.59
2022-10-23T08:33:19.317Z,97725.88
2022-10-23T08:35:45.618Z,97731.84
2022-10-23T08:38:12.064Z,97724.94
2022-10-23T08:40:38.281Z,97729.38
2022-10-23T08:43:04.739Z,97724.00
2022-10-23T08:45:31.055Z,97722.09
2022-10-23T08:47:57.408Z,97719.41
2022-10-23T08:50:23.683Z,97718.94
2022-10-23T08:52:49.888Z,97727.00
2022-10-23T08:55:16.157Z,97723.28
2022-10-23T08:57:43.520Z,97723.59
2022-10-23T09:00:09.988Z,97727.66
2022-10-23T09:02:36.205Z,97721.84
2022-10-23T09:05:02.435Z,97735.28
2022-10-23T09:07:28.704Z,97728.91
2022-10-23T09:09:54.972Z,97746.91
2022-10-23T09:12:21.216Z,97757.41
2022-10-23T09:14:47.470Z,97757.69
2022-10-23T09:19:41.000Z,97773.28
2022-10-23T09:22:07.284Z,97772.47
2022-10-23T09:24:33.928Z,97765.50
2022-10-23T09:27:00.237Z,97760.16
2022-10-23T09:29:26.517Z,97759.09
2022-10-23T09:31:52.780Z,97762.84
2022-10-23T09:34:19.030Z,97758.78
2022-10-23T09:36:45.324Z,97765.75
2022-10-23T09:39:11.978Z,97766.53
2022-10-23T09:41:38.214Z,97761.69
2022-10-23T09:44:04.994Z,97763.31
2022-10-23T09:46:31.798Z,97762.72
2022-10-23T09:48:59.843Z,97775.88
2022-10-23T09:51:29.591Z,97760.28
2022-10-23T09:53:55.886Z,97750.91
2022-10-23T09:56:24.738Z,97755.72
2022-10-23T09:58:55.444Z,97764.28
2022-10-23T10:01:24.226Z,97763.47
2022-10-23T10:03:52.501Z,97758.34
2022-10-23T10:06:20.997Z,97758.31
2022-10-23T10:08:47.274Z,97757.78
2022-10-23T10:11:13.524Z,97746.47
2022-10-23T10:13:39.736Z,97758.28
2022-10-23T10:16:05.950Z,97759.84
2022-10-23T10:18:32.198Z,97756.31
2022-10-23T10:20:58.572Z,97766.19
2022-10-23T10:23:24.777Z,97763.47
2022-10-23T10:25:52.212Z,97760.75
2022-10-23T10:28:18.977Z,97771.19
2022-10-23T10:30:45.305Z,97768.97
2022-10-23T10:33:11.631Z,97764.38
2022-10-23T10:35:37.931Z,97755.72
2022-10-23T10:38:04.220Z,97740.41
2022-10-23T10:40:30.429Z,97742.81
2022-10-23T10:42:56.675Z,97740.59
2022-10-23T10:45:22.939Z,97740.03
2022-10-23T10:47:49.365Z,97733.06
2022-10-23T10:50:15.720Z,97736.22
2022-10-23T10:52:45.437Z,97741.03
2022-10-23T10:55:15.256Z,97726.22
2022-10-23T10:57:41.810Z,97725.06
2022-10-23T11:00:08.272Z,97726.09
2022-10-23T11:02:34.459Z,97730.63
2022-10-23T11:05:00.786Z,97724.09
2022-10-23T11:07:27.012Z,97730.53
2022-10-23T11:09:53.235Z,97721.34
2022-10-23T11:12:19.529Z,97714.88
2022-10-23T11:14:45.827Z,97706.25
2022-10-23T11:17:12.028Z,97701.59
2022-10-23T11:19:38.248Z,97696.66
2022-10-23T11:22:04.500Z,97701.66
2022-10-23T11:24:30.708Z,97706.09
2022-10-23T11:26:57.520Z,97704.09
2022-10-23T11:29:23.752Z,97712.34
2022-10-23T11:31:50.200Z,97703.94
2022-10-23T11:34:16.713Z,97696.84
2022-10-23T11:36:43.032Z,97691.97
2022-10-23T11:39:09.273Z,97682.31
2022-10-23T11:41:35.485Z,97674.22
2022-10-23T11:44:01.833Z,97665.31
2022-10-23T11:46:30.623Z,97654.84
2022-10-23T11:48:56.818Z,97655.91
2022-10-23T11:51:23.038Z,97633.88
2022-10-23T11:53:49.303Z,97616.06
2022-10-23T11:56:15.690Z,97619.06
2022-10-23T11:58:41.932Z,97610.69
2022-10-23T12:01:08.202Z,97615.47
2022-10-23T12:03:34.436Z,97608.72
2022-10-23T12:06:00.686Z,97606.25
2022-10-23T12:08:27.343Z,97600.56
2022-10-23T12:10:53.697Z,97599.69
2022-10-23T12:13:19.924Z,97592.09
2022-10-23T12:15:46.657Z,97582.91
2022-10-23T12:18:13.040Z,97574.84
2022-10-23T12:20:39.354Z,97586.13
2022-10-23T12:23:05.638Z,97579.41
2022-10-23T12:25:31.883Z,97572.44
2022-10-23T12:28:00.316Z,97578.13
2022-10-23T12:30:26.614Z,97573.81
2022-10-23T12:32:56.051Z,97555.53
2022-10-23T12:35:22.529Z,97541.56
2022-10-23T12:37:48.785Z,97534.56
2022-10-23T12:40:15.055Z,97543.44
2022-10-23T12:42:41.849Z,97551.22
2022-10-23T12:45:08.226Z,97547.97
2022-10-23T12:47:34.553Z,97547.38
2022-10-23T12:50:01.462Z,97538.19
2022-10-23T12:52:29.119Z,97543.78
2022-10-23T12:54:55.504Z,97552.06
2022-10-23T12:57:21.885Z,97535.34
2022-10-23T12:59:48.190Z,97530.44
2022-10-23T13:02:17.072Z,97528.22
2022-10-23T13:04:43.406Z,97522.53
2022-10-23T13:07:11.771Z,97523.34
2022-10-23T13:09:37.974Z,97521.75
2022-10-23T13:12:04.226Z,97519.38
2022-10-23T13:14:30.443Z,97514.28
2022-10-23T13:16:56.682Z,97508.38
2022-10-23T13:19:22.948Z,97501.38
2022-10-23T13:21:49.270Z,97487.38
2022-10-23T13:24:16.179Z,97478.81
2022-10-23T13:26:42.468Z,97462.91
2022-10-23T13:29:09.738Z,97473.22
2022-10-23T13:31:36.046Z,97472.91
2022-10-23T13:34:02.296Z,97475.00
2022-10-23T13:36:28.519Z,97472.22
2022-10-23T13:38:54.766Z,97474.59
2022-10-23T13:41:21.004Z,97458.13
2022-10-23T13:43:47.391Z,97458.63
2022-10-23T13:46:13.778Z,97454.84
2022-10-23T13:48:39.988Z,97434.06
2022-10-23T13:51:06.294Z,97410.09
2022-10-23T13:53:32.552Z,97415.81
2022-10-23T13:55:58.926Z,97419.91
2022-10-23T13:58:25.191Z,97410.50
2022-10-23T14:00:51.453Z,97401.91
2022-10-23T14:03:17.695Z,97393.31
2022-10-23T14:05:43.995Z,97397.44
2022-10-23T14:08:12.400Z,97399.91
2022-10-23T14:10:38.607Z,97397.03
2022-10-23T14:13:04.831Z,97395.72
2022-10-23T14:15:31.054Z,97387.13
2022-10-23T14:17:59.503Z,97370.22
2022-10-23T14:20:27.945Z,97362.75
2022-10-23T14:22:54.337Z,97368.75
2022-10-23T14:25:20.627Z,97370.44
2022-10-23T14:27:46.867Z,97362.13
2022-10-23T14:30:13.076Z,97349.53
2022-10-23T14:32:39.270Z,97353.91
2022-10-23T14:35:05.521Z,97346.44
2022-10-23T14:37:32.058Z,97347.31
2022-10-23T14:40:03.107Z,97348.72
2022-10-23T14:43:14.213Z,97345.00
2022-10-23T14:45:41.063Z,97344.28
2022-10-23T14:48:07.315Z,97351.09
2022-10-23T14:53:01.789Z,97331.81
2022-10-23T14:55:28.124Z,97329.72
2022-10-23T14:57:54.346Z,97314.44
2022-10-23T15:00:25.873Z,97296.66
2022-10-23T15:02:52.295Z,97311.03
2022-10-23T15:05:20.711Z,97300.03
2022-10-23T15:07:47.083Z,97302.53
2022-10-23T15:10:13.428Z,97301.53
2022-10-23T15:12:39.890Z,97304.03
2022-10-23T15:15:06.332Z,97299.50
2022-10-23T15:17:32.567Z,97290.69
2022-10-23T15:19:58.834Z,97289.38
2022-10-23T15:22:25.203Z,97280.47
2022-10-23T15:24:51.467Z,97287.38
2022-10-23T15:27:17.798Z,97285.25
2022-10-23T15:29:44.319Z,97277.78
2022-10-23T15:32:10.561Z,97272.47
2022-10-23T15:34:36.752Z,97268.78
2022-10-23T15:37:03.176Z,97262.38
2022-10-23T15:39:31.770Z,97258.69
2022-10-23T15:41:58.091Z,97250.41
2022-10-23T15:44:24.396Z,97243.19
2022-10-23T15:46:50.705Z,97228.75
2022-10-23T15:49:17.004Z,97214.28
2022-10-23T15:51:43.314Z,97206.00
2022-10-23T15:54:12.041Z,97204.97
2022-10-23T15:56:40.595Z,97200.50
2022-10-23T15:59:06.981Z,97195.72
2022-10-23T16:01:33.307Z,97196.53
2022-10-23T16:03:59.611Z,97196.63
2022-10-23T16:06:25.918Z,97198.00
2022-10-23T16:11:18.405Z,97202.94
2022-10-23T16:13:44.847Z,97203.50
2022-10-23T16:16:11.110Z,97199.03
2022-10-23T16:18:43.200Z,97194.22
2022-10-23T16:21:09.571Z,97190.22
2022-10-23T16:23:39.351Z,97190.81
2022-10-23T16:26:05.578Z,97189.78
2022-10-23T16:28:31.869Z,97180.44
2022-10-23T16:30:58.137Z,97179.13
2022-10-23T16:33:24.925Z,97174.31
2022-10-23T16:35:51.255Z,97171.41
2022-10-23T16:38:17.734Z,97173.59
2022-10-23T16:40:43.939Z,97170.69
2022-10-23T16:43:10.162Z,97172.34
2022-10-23T16:45:37.797Z,97169.94
2022-10-23T16:48:04.301Z,97165.16
2022-10-23T16:50:30.705Z,97159.56
2022-10-23T16:52:56.966Z,97144.03
2022-10-23T16:55:23.346Z,97134.66
2022-10-23T16:57:49.879Z,97147.53
2022-10-23T17:00:16.092Z,97145.16
2022-10-23T17:02:42.529Z,97123.38
2022-10-23T17:05:09.050Z,97142.53
2022-10-23T17:07:35.402Z,97156.53
2022-10-23T17:10:01.753Z,97154.41
2022-10-23T17:12:28.105Z,97156.59
2022-10-23T17:14:54.317Z,97158.78
2022-10-23T17:17:20.678Z,97150.19
2022-10-23T17:19:47.176Z,97158.53
2022-10-23T17:22:13.655Z,97148.34
2022-10-23T17:24:39.917Z,97142.53
2022-10-23T17:27:06.236Z,97147.06
2022-10-23T17:29:32.444Z,97151.91
2022-10-23T17:31:58.705Z,97157.56
2022-10-23T17:34:24.914Z,97162.44
2022-10-23T17:36:51.117Z,97166.47
2022-10-23T17:39:17.331Z,97170.25
2022-10-23T17:41:43.800Z,97185.81
2022-10-23T17:44:10.089Z,97184.53
2022-10-23T17:46:36.370Z,97185.59
2022-10-23T17:51:29.008Z,97179.19
2022-10-23T17:53:55.281Z,97177.59
2022-10-23T17:56:23.411Z,97188.63
2022-10-23T17:58:49.999Z,97180.88
2022-10-23T18:01:16.421Z,97175.78
2022-10-23T18:03:42.715Z,97184.91
2022-10-23T18:06:08.961Z,97187.88
2022-10-23T18:08:35.210Z,97186.28
2022-10-23T18:11:01.436Z,97190.84
2022-10-23T18:13:27.663Z,97198.38
2022-10-23T18:15:53.952Z,97197.56
2022-10-23T18:18:20.296Z,97195.97
2022-10-23T18:20:46.536Z,97209.69
2022-10-23T18:23:13.024Z,97222.00
2022-10-23T18:25:39.230Z,97227.66
2022-10-23T18:28:07.797Z,97242.94
2022-10-23T18:30:34.027Z,97244.84
2022-10-23T18:33:00.314Z,97247.81
2022-10-23T18:35:26.560Z,97256.91
2022-10-23T18:37:52.769Z,97251.56
2022-10-23T18:40:19.454Z,97256.91
2022-10-23T18:42:46.381Z,97263.66
2022-10-23T18:45:12.770Z,97251.31
2022-10-23T18:47:39.040Z,97266.59
2022-10-23T18:50:05.252Z,97278.41
2022-10-23T18:52:31.532Z,97278.41
2022-10-23T18:54:57.963Z,97279.50
2022-10-23T18:57:28.295Z,97283.25
2022-10-23T18:59:55.959Z,97287.81
2022-10-23T19:02:22.553Z,97290.78
2022-10-23T19:04:48.945Z,97300.72
2022-10-23T19:07:15.234Z,97299.91
2022-10-23T19:09:41.542Z,97302.59
2022-10-23T19:12:09.908Z,97307.16
2022-10-23T19:14:36.278Z,97295.91
2022-10-23T19:17:02.554Z,97303.41
2022-10-23T19:19:28.876Z,97303.66
2022-10-23T19:21:55.353Z,97306.34
2022-10-23T19:24:21.609Z,97307.44
2022-10-23T19:26:48.082Z,97322.72
2022-10-23T19:29:14.352Z,97340.72
2022-10-23T19:31:40.577Z,97354.38
2022-10-23T19:34:06.808Z,97342.88
2022-10-23T19:36:33.198Z,97345.03
2022-10-23T19:38:59.560Z,97325.72
2022-10-23T19:41:25.756Z,97326.53
2022-10-23T19:43:52.132Z,97325.72
2022-10-23T19:46:18.806Z,97326.81
2022-10-23T19:48:45.080Z,97331.38
2022-10-23T19:51:11.288Z,97320.13
2022-10-23T19:53:37.526Z,97322.00
2022-10-23T19:56:03.802Z,97316.91
2022-10-23T19:58:30.070Z,97290.38
2022-10-23T20:00:57.759Z,97276.16
2022-10-23T20:03:24.124Z,97257.69
2022-10-23T20:05:50.509Z,97259.56
2022-10-23T20:08:16.862Z,97269.50
2022-10-23T20:10:43.232Z,97270.56
2022-10-23T20:13:19.295Z,97290.41
2022-10-23T20:15:49.288Z,97293.09
2022-10-23T20:18:18.358Z,97289.09
2022-10-23T20:20:48.642Z,97278.38
2022-10-23T20:23:14.887Z,97265.25
2022-10-23T20:25:41.360Z,97250.25
2022-10-23T20:28:09.153Z,97243.28
2022-10-23T20:30:37.856Z,97256.19
2022-10-23T20:33:04.243Z,97257.25
2022-10-23T20:35:30.467Z,97244.94
2022-10-23T20:37:56.759Z,97223.78
2022-10-23T20:40:23.070Z,97213.31
2022-10-23T20:42:49.382Z,97192.94
2022-10-23T20:45:15.872Z,97192.94
2022-10-23T20:47:44.747Z,97185.19
2022-10-23T20:50:13.304Z,97189.75
2022-10-23T20:52:39.497Z,97187.06
2022-10-23T20:55:05.748Z,97186.25
2022-10-23T20:57:32.118Z,97176.34
2022-10-23T20:59:58.393Z,97180.91
2022-10-23T21:02:24.939Z,97191.63
2022-10-23T21:04:51.430Z,97192.44
2022-10-23T21:07:17.690Z,97190.56
2022-10-23T21:09:43.979Z,97201.28
2022-10-23T21:12:10.662Z,97205.81
2022-10-23T21:14:36.949Z,97200.47
2022-10-23T21:17:03.269Z,97213.88
2022-10-23T21:19:29.938Z,97210.38
2022-10-23T21:21:56.164Z,97215.75
2022-10-23T21:24:22.393Z,97211.47
2022-10-23T21:26:48.719Z,97213.34
2022-10-23T21:29:19.520Z,97220.59
2022-10-23T21:31:46.632Z,97244.72
2022-10-23T21:34:13.359Z,97227.84
2022-10-23T21:36:48.603Z,97239.38
2022-10-23T21:39:25.829Z,97249.28
2022-10-23T21:41:52.022Z,97250.84
2022-10-23T21:44:18.264Z,97245.50
2022-10-23T21:46:44.484Z,97243.91
2022-10-23T21:49:10.729Z,97247.41
2022-10-23T21:51:37.319Z,97246.34
2022-10-23T21:54:03.632Z,97253.34
2022-10-23T21:56:29.885Z,97251.50
2022-10-23T21:58:56.232Z,97253.13
2022-10-23T22:01:22.597Z,97254.75
2022-10-23T22:03:48.924Z,97252.09
2022-10-23T22:06:15.159Z,97247.56
2022-10-23T22:08:41.394Z,97251.59
2022-10-23T22:11:07.602Z,97236.38
2022-10-23T22:13:33.813Z,97227.78
2022-10-23T22:16:00.021Z,97248.94
2022-10-23T22:18:26.271Z,97237.69
2022-10-23T22:20:52.499Z,97225.97
2022-10-23T22:23:18.710Z,97226.50
2022-10-23T22:25:44.900Z,97228.63
2022-10-23T22:28:11.108Z,97239.91
2022-10-23T22:30:37.378Z,97237.78
2022-10-23T22:33:03.946Z,97239.94
2022-10-23T22:35:30.219Z,97240.22
2022-10-23T22:37:56.459Z,97248.53
2022-10-23T22:40:22.700Z,97238.88
2022-10-23T22:42:49.007Z,97246.38
2022-10-23T22:45:15.188Z,97220.16
2022-10-23T22:47:41.408Z,97231.16
2022-10-23T22:50:07.665Z,97224.97
2022-10-23T22:52:33.971Z,97225.53
2022-10-23T22:55:00.212Z,97231.16
2022-10-23T22:59:52.635Z,97241.63
2022-10-23T23:02:18.863Z,97241.09
2022-10-23T23:04:45.055Z,97252.34
2022-10-23T23:07:11.308Z,97256.06
2022-10-23T23:09:37.594Z,97261.97
2022-10-23T23:12:03.875Z,97249.69
2022-10-23T23:14:30.088Z,97242.72
2022-10-23T23:16:56.319Z,97251.03
2022-10-23T23:19:22.761Z,97252.88
2022-10-23T23:21:48.991Z,97252.38
2022-10-23T23:24:15.248Z,97251.56
2022-10-23T23:26:41.490Z,97249.16
2022-10-23T23:29:07.716Z,97262.00
2022-10-23T23:31:33.977Z,97262.28
2022-10-23T23:34:00.173Z,97262.56
2022-10-23T23:36:26.430Z,97260.94
2022-10-23T23:38:52.698Z,97272.72
2022-10-23T23:41:18.961Z,97273.78
2022-10-23T23:43:45.204Z,97284.75
2022-10-23T23:46:11.401Z,97267.91
2022-10-23T23:48:37.661Z,97268.97
2022-10-23T23:51:03.911Z,97265.50
2022-10-23T23:53:30.447Z,97262.81
2022-10-23T23:55:56.654Z,97260.41
2022-10-23T23:58:22.828Z,97255.06
